createdAt,value
2022-08-04T00:01:04.609Z,19.30
2022-08-04T00:03:41.475Z,19.30
2022-08-04T00:06:19.053Z,19.20
2022-08-04T00:08:53.078Z,19.20
2022-08-04T00:11:26.636Z,19.20
2022-08-04T00:14:03.838Z,19.20
2022-08-04T00:16:38.601Z,19.20
2022-08-04T00:19:13.695Z,19.20
2022-08-04T00:21:49.002Z,19.20
2022-08-04T00:24:22.535Z,19.30
2022-08-04T00:26:56.304Z,19.20
2022-08-04T00:29:26.724Z,19.30
2022-08-04T00:31:58.090Z,19.30
2022-08-04T00:34:32.794Z,19.40
2022-08-04T00:37:02.045Z,19.50
2022-08-04T00:39:33.191Z,19.40
2022-08-04T00:42:19.473Z,19.40
2022-08-04T00:45:01.462Z,19.30
2022-08-04T00:47:46.305Z,19.30
2022-08-04T00:50:26.554Z,19.20
2022-08-04T00:53:15.555Z,19.20
2022-08-04T00:56:08.284Z,19.20
2022-08-04T00:58:48.623Z,19.10
2022-08-04T01:01:30.806Z,19.00
2022-08-04T01:04:05.384Z,19.00
2022-08-04T01:06:41.164Z,19.00
2022-08-04T01:09:25.008Z,18.90
2022-08-04T01:12:18.224Z,18.80
2022-08-04T01:15:01.814Z,18.90
2022-08-04T01:17:42.563Z,18.80
2022-08-04T01:20:13.115Z,18.70
2022-08-04T01:23:07.269Z,18.60
2022-08-04T01:26:15.276Z,18.60
2022-08-04T01:29:14.206Z,18.80
2022-08-04T01:31:54.644Z,18.80
2022-08-04T01:34:24.634Z,18.80
2022-08-04T01:37:05.183Z,18.70
2022-08-04T01:39:44.273Z,18.80
2022-08-04T01:42:31.354Z,18.90
2022-08-04T01:45:07.353Z,19.00
2022-08-04T01:47:37.693Z,19.00
2022-08-04T01:50:08.994Z,19.00
2022-08-04T01:52:39.923Z,19.20
2022-08-04T01:55:11.133Z,19.20
2022-08-04T01:57:44.274Z,19.10
2022-08-04T02:00:16.303Z,19.20
2022-08-04T02:02:46.474Z,19.20
2022-08-04T02:05:17.715Z,19.40
2022-08-04T02:08:00.983Z,19.40
2022-08-04T02:10:31.130Z,19.40
2022-08-04T02:13:12.427Z,19.40
2022-08-04T02:15:53.277Z,19.50
2022-08-04T02:18:25.635Z,19.50
2022-08-04T02:20:59.696Z,19.50
2022-08-04T02:23:35.993Z,19.50
2022-08-04T02:26:06.683Z,19.60
2022-08-04T02:28:47.888Z,19.60
2022-08-04T02:31:25.763Z,19.50
2022-08-04T02:34:07.725Z,19.50
2022-08-04T02:36:39.427Z,19.40
2022-08-04T02:39:10.171Z,19.50
2022-08-04T02:41:40.254Z,19.50
2022-08-04T02:44:10.611Z,19.50
2022-08-04T02:46:42.784Z,19.50
2022-08-04T02:49:12.644Z,19.40
2022-08-04T02:51:44.405Z,19.30
2022-08-04T02:54:13.306Z,19.20
2022-08-04T02:56:45.497Z,19.10
2022-08-04T02:59:21.954Z,19.00
2022-08-04T03:01:57.359Z,19.00
2022-08-04T03:04:52.654Z,18.80
2022-08-04T03:07:58.883Z,18.70
2022-08-04T03:11:06.964Z,18.60
2022-08-04T03:14:09.567Z,18.60
2022-08-04T03:17:07.174Z,18.60
2022-08-04T03:20:14.634Z,18.60
2022-08-04T03:23:17.663Z,18.50
2022-08-04T03:26:17.493Z,18.40
2022-08-04T03:29:36.202Z,18.40
2022-08-04T03:32:45.384Z,18.40
2022-08-04T03:35:42.933Z,18.30
2022-08-04T03:38:41.143Z,18.40
2022-08-04T03:41:56.072Z,18.50
2022-08-04T03:44:53.044Z,18.50
2022-08-04T03:47:55.102Z,18.50
2022-08-04T03:51:32.504Z,18.40
2022-08-04T03:54:26.216Z,18.30
2022-08-04T03:57:20.490Z,18.30
2022-08-04T04:00:07.353Z,18.20
2022-08-04T04:03:11.915Z,18.30
2022-08-04T04:06:25.863Z,18.40
2022-08-04T04:09:56.667Z,18.60
2022-08-04T04:12:38.474Z,18.70
2022-08-04T04:15:26.983Z,18.70
2022-08-04T04:18:17.483Z,18.70
2022-08-04T04:21:10.474Z,18.80
2022-08-04T04:24:02.723Z,18.90
2022-08-04T04:26:41.784Z,18.90
2022-08-04T04:29:39.903Z,18.80
2022-08-04T04:32:23.886Z,18.80
2022-08-04T04:35:16.192Z,18.70
2022-08-04T04:38:29.233Z,18.60
2022-08-04T04:41:21.084Z,18.50
2022-08-04T04:44:22.553Z,18.50
2022-08-04T04:46:59.639Z,18.50
2022-08-04T04:49:36.262Z,18.50
2022-08-04T04:52:14.928Z,18.50
2022-08-04T04:54:54.945Z,18.60
2022-08-04T04:57:54.018Z,18.60
2022-08-04T05:00:16.604Z,18.70
2022-08-04T05:03:20.713Z,18.70
2022-08-04T05:06:09.864Z,18.80
2022-08-04T05:08:55.503Z,18.90
2022-08-04T05:11:55.206Z,19.00
2022-08-04T05:14:36.652Z,19.00
2022-08-04T05:17:20.203Z,19.10
2022-08-04T05:19:57.471Z,19.30
2022-08-04T05:22:31.153Z,19.30
2022-08-04T05:25:07.411Z,19.40
2022-08-04T05:27:42.083Z,19.40
2022-08-04T05:30:12.923Z,19.50
2022-08-04T05:32:49.492Z,19.60
2022-08-04T05:35:53.988Z,19.60
2022-08-04T05:38:22.003Z,19.70
2022-08-04T05:40:54.506Z,19.80
2022-08-04T05:43:25.057Z,19.90
2022-08-04T05:45:57.976Z,20.00
2022-08-04T05:48:28.012Z,20.10
2022-08-04T05:51:00.914Z,20.10
2022-08-04T05:53:31.912Z,20.20
2022-08-04T05:56:03.654Z,20.30
2022-08-04T05:58:33.312Z,20.40
2022-08-04T06:01:03.911Z,20.50
2022-08-04T06:03:35.933Z,20.60
2022-08-04T06:06:05.891Z,20.60
2022-08-04T06:08:34.673Z,20.80
2022-08-04T06:11:07.884Z,20.80
2022-08-04T06:13:46.745Z,20.90
2022-08-04T06:16:28.755Z,21.00
2022-08-04T06:20:00.401Z,21.10
2022-08-04T06:21:55.502Z,21.20
2022-08-04T06:24:27.722Z,21.40
2022-08-04T06:26:59.053Z,21.50
2022-08-04T06:29:34.364Z,21.60
2022-08-04T06:32:27.593Z,21.80
2022-08-04T06:35:02.062Z,21.90
2022-08-04T06:37:42.501Z,22.10
2022-08-04T06:40:31.840Z,22.20
2022-08-04T06:43:04.278Z,22.30
2022-08-04T06:45:35.750Z,22.50
2022-08-04T06:48:06.582Z,22.50
2022-08-04T06:51:30.429Z,22.70
2022-08-04T06:53:27.511Z,22.80
2022-08-04T06:55:57.715Z,22.90
2022-08-04T06:58:29.325Z,23.00
2022-08-04T07:01:02.401Z,23.10
2022-08-04T07:03:32.435Z,23.20
2022-08-04T07:06:06.044Z,23.40
2022-08-04T07:08:43.984Z,23.50
2022-08-04T07:11:13.301Z,23.60
2022-08-04T07:13:45.579Z,23.80
2022-08-04T07:16:16.865Z,23.90
2022-08-04T07:18:45.851Z,24.00
2022-08-04T07:21:22.035Z,24.10
2022-08-04T07:23:50.983Z,24.20
2022-08-04T07:26:20.034Z,24.40
2022-08-04T07:28:50.196Z,24.50
2022-08-04T07:31:33.511Z,24.60
2022-08-04T07:34:16.641Z,24.70
2022-08-04T07:36:50.375Z,24.80
2022-08-04T07:39:28.497Z,24.90
2022-08-04T07:42:01.512Z,25.00
2022-08-04T07:44:33.264Z,25.20
2022-08-04T07:47:03.443Z,25.30
2022-08-04T07:49:54.894Z,25.50
2022-08-04T07:52:22.352Z,25.70
2022-08-04T07:54:51.863Z,25.90
2022-08-04T07:57:39.998Z,26.20
2022-08-04T08:00:15.182Z,26.50
2022-08-04T08:02:45.082Z,26.90
2022-08-04T08:05:17.008Z,27.30
2022-08-04T08:07:50.729Z,27.50
2022-08-04T08:10:23.702Z,27.50
2022-08-04T08:12:53.903Z,27.70
2022-08-04T08:15:24.592Z,28.10
2022-08-04T08:17:59.096Z,28.90
2022-08-04T08:20:31.308Z,29.90
2022-08-04T08:23:01.182Z,30.80
2022-08-04T08:25:32.402Z,31.70
2022-08-04T08:28:01.699Z,32.20
2022-08-04T08:30:32.816Z,33.00
2022-08-04T08:33:07.613Z,34.00
2022-08-04T08:35:52.086Z,34.10
2022-08-04T08:38:40.213Z,34.30
2022-08-04T08:41:25.122Z,34.90
2022-08-04T08:44:19.312Z,34.50
2022-08-04T08:47:21.335Z,34.40
2022-08-04T08:50:12.283Z,33.80
2022-08-04T08:53:02.159Z,33.10
2022-08-04T08:55:44.042Z,32.80
2022-08-04T08:58:32.690Z,32.40
2022-08-04T09:01:11.643Z,32.10
2022-08-04T09:03:53.667Z,31.80
2022-08-04T09:06:43.092Z,31.80
2022-08-04T09:09:32.322Z,31.70
2022-08-04T09:12:14.426Z,31.80
2022-08-04T09:14:51.695Z,31.80
2022-08-04T09:17:28.785Z,31.70
2022-08-04T09:20:07.314Z,31.40
2022-08-04T09:22:51.103Z,31.20
2022-08-04T09:25:25.803Z,31.40
2022-08-04T09:27:56.261Z,32.20
2022-08-04T09:30:30.983Z,32.90
2022-08-04T09:33:09.992Z,33.40
2022-08-04T09:35:49.044Z,33.50
2022-08-04T09:38:26.643Z,33.50
2022-08-04T09:41:03.877Z,33.60
2022-08-04T09:44:40.770Z,33.50
2022-08-04T09:46:52.870Z,33.60
2022-08-04T09:49:31.164Z,33.60
2022-08-04T09:52:09.393Z,33.30
2022-08-04T09:54:48.290Z,33.10
2022-08-04T09:57:26.972Z,33.30
2022-08-04T10:00:02.728Z,33.70
2022-08-04T10:02:37.195Z,34.00
2022-08-04T10:05:10.605Z,34.20
2022-08-04T10:08:15.256Z,33.90
2022-08-04T10:10:53.084Z,33.60
2022-08-04T10:13:34.043Z,33.90
2022-08-04T10:16:18.461Z,34.90
2022-08-04T10:18:59.224Z,35.80
2022-08-04T10:21:59.072Z,36.80
2022-08-04T10:24:54.273Z,38.30
2022-08-04T10:27:29.615Z,39.10
2022-08-04T10:30:04.053Z,39.50
2022-08-04T10:32:43.087Z,39.30
2022-08-04T10:35:15.415Z,38.70
2022-08-04T10:37:59.207Z,38.40
2022-08-04T10:40:37.917Z,38.40
2022-08-04T10:43:28.323Z,38.10
2022-08-04T10:46:01.242Z,37.90
2022-08-04T10:48:41.532Z,38.40
2022-08-04T10:51:20.232Z,38.30
2022-08-04T10:53:55.595Z,37.40
2022-08-04T10:56:33.592Z,36.80
2022-08-04T10:59:08.535Z,37.10
2022-08-04T11:02:01.650Z,36.80
2022-08-04T11:04:39.121Z,36.80
2022-08-04T11:07:10.043Z,36.80
2022-08-04T11:09:40.494Z,36.80
2022-08-04T11:12:17.162Z,36.80
2022-08-04T11:14:57.743Z,36.60
2022-08-04T11:17:33.735Z,36.10
2022-08-04T11:20:33.948Z,35.70
2022-08-04T11:23:07.646Z,35.50
2022-08-04T11:25:51.955Z,35.90
2022-08-04T11:28:32.508Z,36.10
2022-08-04T11:31:06.332Z,36.80
2022-08-04T11:33:42.497Z,37.70
2022-08-04T11:36:22.014Z,38.20
2022-08-04T11:39:04.830Z,38.50
2022-08-04T11:41:43.702Z,39.30
2022-08-04T11:44:25.493Z,40.40
2022-08-04T11:47:00.223Z,41.20
2022-08-04T11:49:56.914Z,41.80
2022-08-04T11:52:25.530Z,42.80
2022-08-04T11:54:55.948Z,43.50
2022-08-04T11:57:35.123Z,43.10
2022-08-04T12:00:10.250Z,42.30
2022-08-04T12:03:08.633Z,41.60
2022-08-04T12:05:45.084Z,40.90
2022-08-04T12:08:28.006Z,40.40
2022-08-04T12:11:23.005Z,39.80
2022-08-04T12:14:00.919Z,39.80
2022-08-04T12:16:37.764Z,40.10
2022-08-04T12:19:15.517Z,41.00
2022-08-04T12:21:55.747Z,41.60
2022-08-04T12:24:32.554Z,41.80
2022-08-04T12:27:08.050Z,41.70
2022-08-04T12:29:38.834Z,41.30
2022-08-04T12:32:25.223Z,40.80
2022-08-04T12:35:10.665Z,40.50
2022-08-04T12:37:50.454Z,39.70
2022-08-04T12:40:29.633Z,39.80
2022-08-04T12:43:07.246Z,40.70
2022-08-04T12:45:36.655Z,41.30
2022-08-04T12:48:09.126Z,41.40
2022-08-04T12:50:38.376Z,41.60
2022-08-04T12:53:31.250Z,41.50
2022-08-04T12:56:02.775Z,41.80
2022-08-04T12:58:42.724Z,42.00
2022-08-04T13:02:09.581Z,42.60
2022-08-04T13:04:50.434Z,43.80
2022-08-04T13:07:23.859Z,44.50
2022-08-04T13:09:53.499Z,45.00
2022-08-04T13:12:32.587Z,44.90
2022-08-04T13:15:10.931Z,45.00
2022-08-04T13:17:52.800Z,45.20
2022-08-04T13:20:32.498Z,45.40
2022-08-04T13:23:06.120Z,45.60
2022-08-04T13:26:42.489Z,45.20
2022-08-04T13:28:32.888Z,44.90
2022-08-04T13:31:06.800Z,44.80
2022-08-04T13:33:39.080Z,44.70
2022-08-04T13:36:10.711Z,44.70
2022-08-04T13:38:56.617Z,44.90
2022-08-04T13:41:30.699Z,45.10
2022-08-04T13:44:18.895Z,45.20
2022-08-04T13:46:51.990Z,45.40
2022-08-04T13:49:38.117Z,45.20
2022-08-04T13:52:12.159Z,45.30
2022-08-04T13:54:43.739Z,44.90
2022-08-04T13:57:17.224Z,44.70
2022-08-04T13:59:53.899Z,44.80
2022-08-04T14:02:33.329Z,44.40
2022-08-04T14:05:18.762Z,43.30
2022-08-04T14:07:56.519Z,42.90
2022-08-04T14:10:25.679Z,42.90
2022-08-04T14:12:56.423Z,43.40
2022-08-04T14:16:01.976Z,43.50
2022-08-04T14:18:33.500Z,43.80
2022-08-04T14:21:06.756Z,43.90
2022-08-04T14:23:49.879Z,43.40
2022-08-04T14:26:21.687Z,41.90
2022-08-04T14:29:27.205Z,40.90
2022-08-04T14:32:04.464Z,40.40
2022-08-04T14:34:42.190Z,39.90
2022-08-04T14:37:18.504Z,39.20
2022-08-04T14:40:19.330Z,38.40
2022-08-04T14:42:54.800Z,37.70
2022-08-04T14:45:35.835Z,37.00
2022-08-04T14:48:07.728Z,36.50
2022-08-04T14:50:40.189Z,36.10
2022-08-04T14:53:11.191Z,35.70
2022-08-04T14:55:44.908Z,35.20
2022-08-04T14:58:36.699Z,34.70
2022-08-04T15:01:10.159Z,34.10
2022-08-04T15:03:51.914Z,33.50
2022-08-04T15:06:23.975Z,33.00
2022-08-04T15:08:53.975Z,32.60
2022-08-04T15:11:24.790Z,32.20
2022-08-04T15:13:53.959Z,31.80
2022-08-04T15:16:23.205Z,31.50
2022-08-04T15:18:54.644Z,31.00
2022-08-04T15:21:28.437Z,30.80
2022-08-04T15:23:57.727Z,30.50
2022-08-04T15:26:34.989Z,30.20
2022-08-04T15:29:15.959Z,29.80
2022-08-04T15:32:07.625Z,29.50
2022-08-04T15:34:48.906Z,29.30
2022-08-04T15:37:25.267Z,29.10
2022-08-04T15:40:01.170Z,28.90
2022-08-04T15:42:37.678Z,28.70
2022-08-04T15:45:20.289Z,28.50
2022-08-04T15:48:26.791Z,28.40
2022-08-04T15:51:08.587Z,28.20
2022-08-04T15:54:27.457Z,27.90
2022-08-04T15:57:02.513Z,27.70
2022-08-04T16:00:01.892Z,27.50
2022-08-04T16:02:43.766Z,27.40
2022-08-04T16:05:37.029Z,27.30
2022-08-04T16:08:13.719Z,27.30
2022-08-04T16:10:44.048Z,27.30
2022-08-04T16:13:15.215Z,27.40
2022-08-04T16:15:48.496Z,27.30
2022-08-04T16:18:37.545Z,27.20
2022-08-04T16:21:08.711Z,27.40
2022-08-04T16:24:08.267Z,27.60
2022-08-04T16:26:54.639Z,27.80
2022-08-04T16:29:39.646Z,27.80
2022-08-04T16:32:10.831Z,27.80
2022-08-04T16:34:54.615Z,27.60
2022-08-04T16:37:29.000Z,27.40
2022-08-04T16:40:44.351Z,27.40
2022-08-04T16:43:14.748Z,27.40
2022-08-04T16:46:02.759Z,27.40
2022-08-04T16:48:33.966Z,27.50
2022-08-04T16:51:05.858Z,27.60
2022-08-04T16:54:02.742Z,27.70
2022-08-04T16:56:33.470Z,27.90
2022-08-04T16:59:09.757Z,27.90
2022-08-04T17:01:39.190Z,27.90
2022-08-04T17:04:09.380Z,27.90
2022-08-04T17:06:40.248Z,28.00
2022-08-04T17:09:13.679Z,28.00
2022-08-04T17:11:43.196Z,27.90
2022-08-04T17:14:12.559Z,27.80
2022-08-04T17:16:43.607Z,27.80
2022-08-04T17:19:23.766Z,27.70
2022-08-04T17:22:04.183Z,27.50
2022-08-04T17:24:35.151Z,27.30
2022-08-04T17:28:20.141Z,27.10
2022-08-04T17:29:53.699Z,27.00
2022-08-04T17:32:23.894Z,26.90
2022-08-04T17:34:57.203Z,26.80
2022-08-04T17:37:40.252Z,26.80
2022-08-04T17:40:13.658Z,26.80
2022-08-04T17:42:45.204Z,26.70
2022-08-04T17:45:50.295Z,26.70
2022-08-04T17:48:24.650Z,26.60
2022-08-04T17:50:56.059Z,26.60
2022-08-04T17:53:52.902Z,26.50
2022-08-04T17:56:31.996Z,26.50
2022-08-04T17:59:57.030Z,26.40
2022-08-04T18:02:32.247Z,26.30
2022-08-04T18:05:05.600Z,26.20
2022-08-04T18:08:37.933Z,26.20
2022-08-04T18:10:52.078Z,26.10
2022-08-04T18:13:25.701Z,26.00
2022-08-04T18:16:03.065Z,25.90
2022-08-04T18:18:31.948Z,25.80
2022-08-04T18:21:02.911Z,25.70
2022-08-04T18:23:34.761Z,25.60
2022-08-04T18:26:23.551Z,25.60
2022-08-04T18:28:53.232Z,25.50
2022-08-04T18:31:21.938Z,25.30
2022-08-04T18:33:59.011Z,25.20
2022-08-04T18:36:34.199Z,25.20
2022-08-04T18:39:13.672Z,24.90
2022-08-04T18:42:01.871Z,24.80
2022-08-04T18:44:52.131Z,24.80
2022-08-04T18:47:23.676Z,24.70
2022-08-04T18:51:01.880Z,24.60
2022-08-04T18:52:45.263Z,24.50
2022-08-04T18:55:51.560Z,24.40
2022-08-04T18:58:07.261Z,24.30
2022-08-04T19:00:45.329Z,24.20
2022-08-04T19:03:16.447Z,24.20
2022-08-04T19:05:51.457Z,24.20
2022-08-04T19:08:32.960Z,24.20
2022-08-04T19:11:37.154Z,24.10
2022-08-04T19:13:58.632Z,24.00
2022-08-04T19:16:28.755Z,23.90
2022-08-04T19:18:57.857Z,23.70
2022-08-04T19:22:00.538Z,23.60
2022-08-04T19:24:32.843Z,23.50
2022-08-04T19:27:06.371Z,23.50
2022-08-04T19:29:37.889Z,23.50
2022-08-04T19:32:14.593Z,23.30
2022-08-04T19:34:47.444Z,23.40
2022-08-04T19:37:58.100Z,23.30
2022-08-04T19:40:08.164Z,23.30
2022-08-04T19:42:40.487Z,23.20
2022-08-04T19:45:09.768Z,23.10
2022-08-04T19:48:16.058Z,23.00
2022-08-04T19:50:33.928Z,22.80
2022-08-04T19:53:18.618Z,22.80
2022-08-04T19:55:49.676Z,22.70
2022-08-04T19:58:21.563Z,22.60
2022-08-04T20:00:55.558Z,22.50
2022-08-04T20:04:09.485Z,22.40
2022-08-04T20:06:13.447Z,22.30
2022-08-04T20:11:31.107Z,22.20
2022-08-04T20:14:03.929Z,22.10
2022-08-04T20:16:32.789Z,22.00
2022-08-04T20:19:05.003Z,21.90
2022-08-04T20:21:55.670Z,21.80
2022-08-04T20:24:39.974Z,21.80
2022-08-04T20:27:15.066Z,21.90
2022-08-04T20:29:49.010Z,21.90
2022-08-04T20:32:22.156Z,21.90
2022-08-04T20:34:52.156Z,21.90
2022-08-04T20:37:23.583Z,21.80
2022-08-04T20:39:55.988Z,21.70
2022-08-04T20:42:27.564Z,21.70
2022-08-04T20:45:04.178Z,21.70
2022-08-04T20:47:35.715Z,21.80
2022-08-04T20:50:08.723Z,21.80
2022-08-04T20:52:39.602Z,21.70
2022-08-04T20:55:10.251Z,21.70
2022-08-04T20:57:48.452Z,21.70
2022-08-04T21:00:26.527Z,21.60
2022-08-04T21:02:59.752Z,21.60
2022-08-04T21:05:28.602Z,21.50
2022-08-04T21:07:58.084Z,21.50
2022-08-04T21:10:28.089Z,21.50
2022-08-04T21:12:57.068Z,21.40
2022-08-04T21:15:57.846Z,21.40
2022-08-04T21:18:16.966Z,21.30
2022-08-04T21:20:48.172Z,21.20
2022-08-04T21:23:17.520Z,21.10
2022-08-04T21:25:51.000Z,21.10
2022-08-04T21:28:20.681Z,21.00
2022-08-04T21:30:52.572Z,21.00
2022-08-04T21:33:24.248Z,21.00
2022-08-04T21:36:12.947Z,21.00
2022-08-04T21:38:41.947Z,21.00
2022-08-04T21:41:24.906Z,21.10
2022-08-04T21:43:56.235Z,21.10
2022-08-04T21:46:26.477Z,21.00
2022-08-04T21:48:59.023Z,21.00
2022-08-04T21:51:58.729Z,21.00
2022-08-04T21:54:18.062Z,20.90
2022-08-04T21:56:50.972Z,20.90
2022-08-04T21:59:23.567Z,20.90
2022-08-04T22:02:02.052Z,20.80
2022-08-04T22:04:31.691Z,20.70
2022-08-04T22:07:02.906Z,20.70
2022-08-04T22:09:38.556Z,20.70
2022-08-04T22:12:11.896Z,20.70
2022-08-04T22:14:41.108Z,20.70
2022-08-04T22:17:13.906Z,20.70
2022-08-04T22:19:55.483Z,20.70
2022-08-04T22:22:29.230Z,20.60
2022-08-04T22:25:12.273Z,20.60
2022-08-04T22:28:01.199Z,20.60
2022-08-04T22:30:37.037Z,20.50
2022-08-04T22:33:09.937Z,20.40
2022-08-04T22:35:48.917Z,20.40
2022-08-04T22:38:28.069Z,20.30
2022-08-04T22:41:07.648Z,20.20
2022-08-04T22:43:37.738Z,20.20
2022-08-04T22:46:08.718Z,20.20
2022-08-04T22:48:43.281Z,20.10
2022-08-04T22:51:13.158Z,20.00
2022-08-04T22:53:48.764Z,20.00
2022-08-04T22:56:37.121Z,20.00
2022-08-04T22:59:10.895Z,19.90
2022-08-04T23:02:00.364Z,19.90
2022-08-04T23:04:31.565Z,19.80
2022-08-04T23:07:05.204Z,19.70
2022-08-04T23:09:50.823Z,19.70
2022-08-04T23:12:28.028Z,19.60
2022-08-04T23:14:58.151Z,19.60
2022-08-04T23:17:28.707Z,19.60
2022-08-04T23:20:00.044Z,19.50
2022-08-04T23:22:37.520Z,19.50
2022-08-04T23:25:16.372Z,19.50
2022-08-04T23:27:48.130Z,19.50
2022-08-04T23:30:21.526Z,19.50
2022-08-04T23:32:50.830Z,19.50
2022-08-04T23:35:22.149Z,19.50
2022-08-04T23:37:56.348Z,19.40
2022-08-04T23:40:34.297Z,19.50
2022-08-04T23:43:17.512Z,19.50
2022-08-04T23:46:04.084Z,19.60
2022-08-04T23:48:35.116Z,19.60
2022-08-04T23:51:14.007Z,19.60
2022-08-04T23:53:52.392Z,19.50
2022-08-04T23:56:32.777Z,19.50
2022-08-04T23:59:04.792Z,19.50
